createdAt,value
2022-08-25T00:00:55.447Z,16.78
2022-08-25T00:01:56.066Z,16.64
2022-08-25T00:02:56.670Z,16.68
2022-08-25T00:03:55.535Z,16.58
2022-08-25T00:04:55.421Z,16.53
2022-08-25T00:05:56.225Z,16.41
2022-08-25T00:06:59.417Z,16.16
2022-08-25T00:07:57.034Z,16.10
2022-08-25T00:08:55.386Z,16.12
2022-08-25T00:09:55.332Z,16.04
2022-08-25T00:11:02.848Z,16.09
2022-08-25T00:11:56.367Z,16.04
2022-08-25T00:12:55.372Z,16.15
2022-08-25T00:13:55.302Z,16.10
2022-08-25T00:14:55.268Z,16.02
2022-08-25T00:15:55.373Z,15.95
2022-08-25T00:16:56.153Z,16.02
2022-08-25T00:17:55.248Z,16.01
2022-08-25T00:18:55.295Z,16.01
2022-08-25T00:19:55.311Z,16.01
2022-08-25T00:20:55.245Z,16.04
2022-08-25T00:21:55.243Z,16.01
2022-08-25T00:22:55.218Z,16.16
2022-08-25T00:23:55.239Z,16.08
2022-08-25T00:24:55.313Z,16.15
2022-08-25T00:25:55.173Z,16.15
2022-08-25T00:26:55.251Z,16.24
2022-08-25T00:27:55.186Z,16.33
2022-08-25T00:28:57.487Z,16.42
2022-08-25T00:29:55.222Z,16.41
2022-08-25T00:30:55.175Z,16.49
2022-08-25T00:31:55.704Z,16.49
2022-08-25T00:32:57.326Z,16.43
2022-08-25T00:33:55.111Z,16.53
2022-08-25T00:34:55.113Z,16.57
2022-08-25T00:35:55.084Z,16.60
2022-08-25T00:36:55.100Z,16.64
2022-08-25T00:37:55.027Z,16.83
2022-08-25T00:38:55.115Z,16.87
2022-08-25T00:39:55.108Z,16.96
2022-08-25T00:40:55.050Z,17.09
2022-08-25T00:41:55.028Z,17.05
2022-08-25T00:42:55.016Z,17.05
2022-08-25T00:43:55.027Z,17.08
2022-08-25T00:44:55.004Z,17.08
2022-08-25T00:45:55.020Z,17.19
2022-08-25T00:46:54.994Z,17.24
2022-08-25T00:47:56.645Z,17.29
2022-08-25T00:48:54.965Z,17.27
2022-08-25T00:49:55.019Z,17.39
2022-08-25T00:50:54.939Z,17.44
2022-08-25T00:51:54.973Z,17.51
2022-08-25T00:52:54.951Z,17.51
2022-08-25T00:53:54.887Z,17.44
2022-08-25T00:54:54.964Z,17.52
2022-08-25T00:55:54.903Z,17.49
2022-08-25T00:56:54.955Z,17.52
2022-08-25T00:57:54.874Z,17.42
2022-08-25T00:58:54.857Z,17.19
2022-08-25T00:59:54.878Z,16.76
2022-08-25T01:00:54.863Z,16.69
2022-08-25T01:01:55.124Z,16.42
2022-08-25T01:02:54.830Z,16.41
2022-08-25T01:03:54.836Z,16.35
2022-08-25T01:04:54.811Z,16.32
2022-08-25T01:05:54.790Z,16.36
2022-08-25T01:06:54.846Z,16.46
2022-08-25T01:07:57.481Z,16.38
2022-08-25T01:08:54.807Z,16.47
2022-08-25T01:09:54.746Z,16.39
2022-08-25T01:10:54.758Z,16.36
2022-08-25T01:11:54.790Z,16.42
2022-08-25T01:12:54.681Z,16.61
2022-08-25T01:13:54.884Z,16.66
2022-08-25T01:14:54.682Z,16.83
2022-08-25T01:15:54.786Z,16.86
2022-08-25T01:16:54.748Z,17.01
2022-08-25T01:17:54.673Z,17.01
2022-08-25T01:18:54.716Z,17.02
2022-08-25T01:19:54.641Z,17.05
2022-08-25T01:20:55.603Z,17.05
2022-08-25T01:21:54.683Z,17.06
2022-08-25T01:22:55.301Z,17.04
2022-08-25T01:23:54.607Z,17.08
2022-08-25T01:24:54.824Z,17.04
2022-08-25T01:25:54.565Z,16.90
2022-08-25T01:26:54.571Z,16.74
2022-08-25T01:27:55.561Z,16.66
2022-08-25T01:28:54.557Z,16.66
2022-08-25T01:29:54.593Z,16.50
2022-08-25T01:30:54.645Z,16.41
2022-08-25T01:31:54.575Z,16.28
2022-08-25T01:32:54.539Z,16.29
2022-08-25T01:33:54.492Z,16.09
2022-08-25T01:34:55.028Z,16.00
2022-08-25T01:35:54.492Z,15.95
2022-08-25T01:36:54.565Z,15.84
2022-08-25T01:37:54.512Z,15.75
2022-08-25T01:38:54.596Z,15.75
2022-08-25T01:39:54.527Z,15.82
2022-08-25T01:40:54.449Z,15.76
2022-08-25T01:41:54.610Z,15.73
2022-08-25T01:42:54.438Z,15.79
2022-08-25T01:43:54.444Z,15.72
2022-08-25T01:44:54.391Z,15.86
2022-08-25T01:45:54.514Z,15.83
2022-08-25T01:46:54.435Z,15.90
2022-08-25T01:47:54.375Z,15.84
2022-08-25T01:48:54.413Z,15.88
2022-08-25T01:49:54.345Z,15.80
2022-08-25T01:50:54.409Z,15.91
2022-08-25T01:51:54.361Z,15.94
2022-08-25T01:52:54.450Z,15.90
2022-08-25T01:53:54.361Z,16.02
2022-08-25T01:54:54.336Z,16.01
2022-08-25T01:55:54.418Z,15.91
2022-08-25T01:56:54.287Z,16.02
2022-08-25T01:57:54.395Z,15.97
2022-08-25T01:58:54.298Z,16.08
2022-08-25T01:59:54.300Z,16.15
2022-08-25T02:00:54.285Z,16.21
2022-08-25T02:01:59.688Z,16.28
2022-08-25T02:02:55.632Z,16.41
2022-08-25T02:03:54.215Z,16.35
2022-08-25T02:04:54.295Z,16.29
2022-08-25T02:05:54.237Z,16.21
2022-08-25T02:06:54.219Z,16.08
2022-08-25T02:07:54.216Z,15.90
2022-08-25T02:08:54.191Z,15.65
2022-08-25T02:09:54.157Z,15.47
2022-08-25T02:10:54.190Z,15.47
2022-08-25T02:11:55.174Z,15.42
2022-08-25T02:12:55.105Z,15.37
2022-08-25T02:13:54.126Z,15.15
2022-08-25T02:14:54.095Z,15.11
2022-08-25T02:15:54.126Z,15.09
2022-08-25T02:16:54.210Z,15.03
2022-08-25T02:17:54.093Z,14.94
2022-08-25T02:18:54.097Z,15.03
2022-08-25T02:19:54.057Z,14.99
2022-08-25T02:20:54.108Z,14.91
2022-08-25T02:21:54.088Z,14.99
2022-08-25T02:22:57.049Z,14.97
2022-08-25T02:23:54.059Z,14.94
2022-08-25T02:24:54.047Z,14.91
2022-08-25T02:25:54.061Z,15.00
2022-08-25T02:26:54.058Z,14.94
2022-08-25T02:27:54.297Z,14.99
2022-08-25T02:28:53.991Z,14.97
2022-08-25T02:29:53.987Z,14.99
2022-08-25T02:30:58.777Z,15.03
2022-08-25T02:31:54.983Z,15.02
2022-08-25T02:45:29.806Z,15.40
2022-08-25T02:46:29.869Z,15.44
2022-08-25T02:47:29.856Z,15.46
2022-08-25T02:48:29.873Z,15.47
2022-08-25T02:49:31.022Z,15.47
2022-08-25T02:50:30.983Z,15.54
2022-08-25T02:51:30.961Z,15.31
2022-08-25T02:52:30.990Z,15.14
2022-08-25T02:53:30.920Z,15.04
2022-08-25T02:54:31.801Z,14.99
2022-08-25T02:55:30.914Z,14.70
2022-08-25T02:56:30.906Z,14.59
2022-08-25T02:57:30.891Z,14.47
2022-08-25T02:58:30.911Z,14.35
2022-08-25T02:59:30.923Z,14.26
2022-08-25T03:00:30.804Z,14.32
2022-08-25T03:01:31.002Z,14.25
2022-08-25T03:02:30.852Z,14.26
2022-08-25T03:03:30.829Z,14.14
2022-08-25T03:04:30.898Z,14.26
2022-08-25T03:05:30.826Z,14.17
2022-08-25T03:06:30.839Z,14.22
2022-08-25T03:07:30.818Z,14.22
2022-08-25T03:08:30.852Z,14.32
2022-08-25T03:09:30.758Z,14.30
2022-08-25T03:10:31.008Z,14.35
2022-08-25T03:11:30.767Z,14.25
2022-08-25T03:12:30.730Z,14.32
2022-08-25T03:13:30.761Z,14.35
2022-08-25T03:14:30.693Z,14.33
2022-08-25T03:15:30.778Z,14.40
2022-08-25T03:16:30.719Z,14.43
2022-08-25T03:17:30.895Z,14.36
2022-08-25T03:18:30.783Z,14.36
2022-08-25T03:19:30.666Z,14.26
2022-08-25T03:20:30.743Z,14.23
2022-08-25T03:21:30.674Z,14.29
2022-08-25T03:22:30.649Z,14.23
2022-08-25T03:23:30.626Z,14.14
2022-08-25T03:24:30.672Z,14.15
2022-08-25T03:25:30.666Z,14.18
2022-08-25T03:26:30.627Z,14.10
2022-08-25T03:27:30.591Z,14.17
2022-08-25T03:28:30.611Z,14.11
2022-08-25T03:29:30.572Z,14.05
2022-08-25T03:30:30.564Z,14.00
2022-08-25T03:31:31.274Z,13.87
2022-08-25T03:32:30.532Z,14.08
2022-08-25T03:33:30.595Z,14.00
2022-08-25T03:34:30.532Z,14.08
2022-08-25T03:35:31.026Z,14.12
2022-08-25T03:36:30.528Z,14.17
2022-08-25T03:37:30.480Z,14.14
2022-08-25T03:38:30.657Z,14.25
2022-08-25T03:39:30.479Z,14.32
2022-08-25T03:40:30.510Z,14.40
2022-08-25T03:41:30.523Z,14.36
2022-08-25T03:42:30.420Z,14.35
2022-08-25T03:43:30.457Z,14.36
2022-08-25T03:44:30.416Z,14.30
2022-08-25T03:45:30.638Z,14.32
2022-08-25T03:46:30.444Z,14.35
2022-08-25T03:47:30.437Z,14.37
2022-08-25T03:48:30.380Z,14.40
2022-08-25T03:49:30.424Z,14.45
2022-08-25T03:50:30.374Z,14.50
2022-08-25T03:51:30.398Z,14.60
2022-08-25T03:52:30.404Z,14.68
2022-08-25T03:53:30.344Z,14.66
2022-08-25T03:54:30.306Z,14.77
2022-08-25T03:55:31.350Z,14.72
2022-08-25T03:56:30.314Z,14.69
2022-08-25T03:57:30.367Z,14.68
2022-08-25T03:58:30.305Z,14.85
2022-08-25T03:59:30.294Z,14.78
2022-08-25T04:00:30.259Z,14.94
2022-08-25T04:01:30.462Z,14.92
2022-08-25T04:02:30.298Z,14.89
2022-08-25T04:03:30.196Z,14.97
2022-08-25T04:04:30.922Z,15.09
2022-08-25T04:05:30.203Z,15.17
2022-08-25T04:06:30.261Z,15.11
2022-08-25T04:07:30.217Z,15.14
2022-08-25T04:08:30.407Z,15.18
2022-08-25T04:09:33.143Z,15.11
2022-08-25T04:10:31.352Z,15.06
2022-08-25T04:11:30.237Z,14.92
2022-08-25T04:12:30.168Z,14.70
2022-08-25T04:13:30.166Z,14.35
2022-08-25T04:14:30.129Z,14.14
2022-08-25T04:15:30.410Z,13.95
2022-08-25T04:16:30.151Z,13.78
2022-08-25T04:17:30.118Z,13.74
2022-08-25T04:18:30.062Z,13.62
2022-08-25T04:19:30.062Z,13.53
2022-08-25T04:20:30.124Z,13.44
2022-08-25T04:21:30.072Z,13.38
2022-08-25T04:22:30.106Z,13.41
2022-08-25T04:23:30.022Z,13.37
2022-08-25T04:24:30.034Z,13.35
2022-08-25T04:25:30.007Z,13.42
2022-08-25T04:26:29.978Z,13.27
2022-08-25T04:27:30.047Z,13.38
2022-08-25T04:28:29.989Z,13.30
2022-08-25T04:29:29.969Z,13.28
2022-08-25T04:30:29.955Z,13.33
2022-08-25T04:31:30.019Z,13.38
2022-08-25T04:32:29.996Z,13.31
2022-08-25T04:33:29.944Z,13.47
2022-08-25T04:34:31.525Z,13.53
2022-08-25T04:35:29.889Z,13.56
2022-08-25T04:36:29.878Z,13.54
2022-08-25T04:37:30.940Z,13.65
2022-08-25T04:38:29.852Z,13.74
2022-08-25T04:39:29.939Z,13.72
2022-08-25T04:40:29.901Z,13.81
2022-08-25T04:41:29.896Z,13.92
2022-08-25T04:42:29.863Z,14.04
2022-08-25T04:43:29.881Z,14.26
2022-08-25T04:44:29.792Z,14.32
2022-08-25T04:45:29.874Z,14.29
2022-08-25T04:46:29.786Z,14.30
2022-08-25T04:47:29.809Z,14.43
2022-08-25T04:48:29.830Z,14.62
2022-08-25T04:49:29.751Z,14.60
2022-08-25T04:50:29.956Z,14.72
2022-08-25T04:51:29.752Z,14.81
2022-08-25T04:52:29.793Z,14.92
2022-08-25T04:53:29.755Z,15.00
2022-08-25T04:54:29.694Z,14.99
2022-08-25T04:55:30.724Z,15.15
2022-08-25T04:56:29.709Z,15.14
2022-08-25T04:57:29.739Z,15.11
2022-08-25T04:58:29.709Z,15.15
2022-08-25T04:59:30.509Z,15.14
2022-08-25T05:00:29.667Z,15.02
2022-08-25T05:01:29.741Z,14.96
2022-08-25T05:02:29.674Z,14.97
2022-08-25T05:03:29.704Z,15.03
2022-08-25T05:04:29.864Z,15.00
2022-08-25T05:05:29.598Z,15.10
2022-08-25T05:06:29.632Z,15.10
2022-08-25T05:07:29.594Z,15.10
2022-08-25T05:08:29.601Z,15.18
2022-08-25T05:09:32.410Z,15.33
2022-08-25T05:10:29.590Z,15.24
2022-08-25T05:11:29.590Z,15.31
2022-08-25T05:12:29.542Z,15.24
2022-08-25T05:13:29.591Z,15.37
2022-08-25T05:14:29.523Z,15.35
2022-08-25T05:15:29.536Z,15.40
2022-08-25T05:16:30.629Z,15.29
2022-08-25T05:17:29.518Z,15.19
2022-08-25T05:18:29.555Z,15.11
2022-08-25T05:19:29.477Z,15.00
2022-08-25T05:20:29.468Z,14.91
2022-08-25T05:21:29.536Z,14.84
2022-08-25T05:22:29.446Z,14.84
2022-08-25T05:23:29.967Z,14.86
2022-08-25T05:24:29.417Z,14.85
2022-08-25T05:25:29.430Z,14.86
2022-08-25T05:26:29.455Z,14.92
2022-08-25T05:27:29.459Z,15.03
2022-08-25T05:28:29.385Z,15.17
2022-08-25T05:29:29.416Z,15.27
2022-08-25T05:30:30.455Z,15.28
2022-08-25T05:31:29.394Z,15.43
2022-08-25T05:32:29.361Z,15.44
2022-08-25T05:33:30.595Z,15.65
2022-08-25T05:34:29.386Z,15.77
2022-08-25T05:35:29.356Z,15.83
2022-08-25T05:36:29.357Z,15.92
2022-08-25T05:37:29.316Z,16.01
2022-08-25T05:38:29.281Z,15.97
2022-08-25T05:39:29.341Z,16.00
2022-08-25T05:40:29.302Z,15.97
2022-08-25T05:41:29.398Z,16.12
2022-08-25T05:42:29.268Z,16.21
2022-08-25T05:43:29.224Z,16.26
2022-08-25T05:44:29.248Z,16.38
2022-08-25T05:45:29.248Z,16.41
2022-08-25T05:46:31.597Z,16.60
2022-08-25T05:47:29.256Z,16.54
2022-08-25T05:48:29.208Z,16.60
2022-08-25T05:49:29.234Z,16.57
2022-08-25T05:50:29.305Z,16.51
2022-08-25T05:51:29.508Z,16.42
2022-08-25T05:52:29.240Z,16.47
2022-08-25T05:53:29.139Z,16.69
2022-08-25T05:55:01.726Z,16.79
2022-08-25T05:55:29.584Z,16.91
2022-08-25T05:56:29.976Z,16.93
2022-08-25T05:57:29.156Z,17.01
2022-08-25T05:58:29.057Z,17.06
2022-08-25T05:59:29.156Z,17.08
2022-08-25T06:00:29.197Z,17.11
2022-08-25T06:01:29.201Z,17.15
2022-08-25T06:02:29.186Z,17.39
2022-08-25T06:03:29.077Z,17.46
2022-08-25T06:04:29.042Z,17.49
2022-08-25T06:05:29.010Z,17.52
2022-08-25T06:06:29.806Z,17.51
2022-08-25T06:07:29.023Z,17.49
2022-08-25T06:08:28.960Z,17.39
2022-08-25T06:09:29.046Z,17.49
2022-08-25T06:10:29.342Z,17.56
2022-08-25T06:11:29.318Z,17.52
2022-08-25T06:12:29.354Z,17.63
2022-08-25T06:13:29.292Z,17.72
2022-08-25T06:14:29.419Z,17.78
2022-08-25T06:15:29.103Z,17.68
2022-08-25T06:16:29.585Z,17.82
2022-08-25T06:17:29.114Z,17.82
2022-08-25T06:18:29.443Z,17.90
2022-08-25T06:19:29.332Z,17.87
2022-08-25T06:20:29.307Z,17.95
2022-08-25T06:21:29.160Z,18.05
2022-08-25T06:22:29.017Z,18.18
2022-08-25T06:23:29.230Z,18.25
2022-08-25T06:24:29.255Z,18.22
2022-08-25T06:25:29.153Z,18.33
2022-08-25T06:26:29.114Z,18.26
2022-08-25T06:27:29.020Z,18.34
2022-08-25T06:28:28.921Z,18.47
2022-08-25T06:29:28.919Z,18.44
2022-08-25T06:30:29.228Z,18.56
2022-08-25T06:31:29.160Z,18.53
2022-08-25T06:32:29.009Z,18.65
2022-08-25T06:33:28.928Z,18.68
2022-08-25T06:34:28.849Z,18.77
2022-08-25T06:35:28.721Z,18.84
2022-08-25T06:36:28.823Z,18.83
2022-08-25T06:37:28.706Z,18.96
2022-08-25T06:38:29.497Z,18.93
2022-08-25T06:39:28.684Z,19.08
2022-08-25T06:40:28.810Z,19.14
2022-08-25T06:41:29.024Z,19.27
2022-08-25T06:42:29.645Z,19.34
2022-08-25T06:43:28.750Z,19.31
2022-08-25T06:44:28.610Z,19.30
2022-08-25T06:45:29.571Z,19.47
2022-08-25T06:46:35.720Z,19.51
2022-08-25T06:47:31.073Z,19.63
2022-08-25T06:48:28.636Z,19.81
2022-08-25T06:49:31.837Z,19.91
2022-08-25T06:50:29.698Z,19.95
2022-08-25T06:51:28.643Z,20.04
2022-08-25T06:52:29.703Z,20.06
2022-08-25T06:53:28.510Z,20.18
2022-08-25T06:54:28.573Z,20.24
2022-08-25T06:55:28.481Z,20.28
2022-08-25T06:56:28.653Z,20.31
2022-08-25T06:57:28.495Z,20.36
2022-08-25T06:58:28.499Z,20.36
2022-08-25T06:59:31.966Z,20.29
2022-08-25T07:00:30.681Z,20.36
2022-08-25T07:01:28.547Z,20.50
2022-08-25T07:02:28.483Z,20.58
2022-08-25T07:03:28.474Z,20.63
2022-08-25T07:04:28.455Z,20.66
2022-08-25T07:05:42.668Z,20.81
2022-08-25T07:06:30.445Z,20.85
2022-08-25T07:07:42.887Z,20.97
2022-08-25T07:08:29.348Z,21.02
2022-08-25T07:09:28.354Z,21.06
2022-08-25T07:10:29.337Z,21.09
2022-08-25T07:11:28.415Z,21.07
2022-08-25T07:12:29.357Z,20.95
2022-08-25T07:13:28.422Z,21.05
2022-08-25T07:14:28.383Z,21.11
2022-08-25T07:15:28.430Z,21.24
2022-08-25T07:16:29.745Z,21.24
2022-08-25T07:17:28.321Z,21.40
2022-08-25T07:18:28.280Z,21.45
2022-08-25T07:19:28.245Z,21.51
2022-08-25T07:20:28.269Z,21.57
2022-08-25T07:21:33.175Z,21.75
2022-08-25T07:22:29.213Z,21.77
2022-08-25T07:23:28.292Z,21.77
2022-08-25T07:24:29.706Z,21.85
2022-08-25T07:25:28.186Z,21.89
2022-08-25T07:26:43.671Z,21.85
2022-08-25T07:27:30.244Z,21.91
2022-08-25T07:28:28.204Z,21.77
2022-08-25T07:29:32.555Z,21.92
2022-08-25T07:30:28.292Z,21.98
2022-08-25T07:31:29.716Z,22.07
2022-08-25T07:32:28.217Z,21.93
2022-08-25T07:33:28.911Z,21.96
2022-08-25T07:34:28.543Z,22.04
2022-08-25T07:35:28.332Z,21.99
2022-08-25T07:36:29.767Z,22.06
2022-08-25T07:37:47.787Z,22.02
2022-08-25T07:38:30.432Z,22.10
2022-08-25T07:39:29.219Z,22.07
2022-08-25T07:40:28.908Z,22.11
2022-08-25T07:41:28.151Z,22.29
2022-08-25T07:42:28.107Z,22.29
2022-08-25T07:43:28.043Z,22.15
2022-08-25T07:44:28.345Z,22.15
2022-08-25T07:45:28.051Z,22.18
2022-08-25T07:46:28.107Z,22.26
2022-08-25T07:47:28.129Z,22.32
2022-08-25T07:48:28.056Z,22.41
2022-08-25T07:49:35.884Z,22.51
2022-08-25T07:50:29.119Z,22.65
2022-08-25T07:51:28.044Z,22.59
2022-08-25T07:52:28.168Z,22.81
2022-08-25T07:53:28.246Z,22.90
2022-08-25T07:54:31.234Z,22.88
2022-08-25T07:55:28.983Z,22.90
2022-08-25T07:56:27.992Z,23.08
2022-08-25T07:57:27.995Z,22.99
2022-08-25T07:58:28.141Z,23.06
2022-08-25T07:59:28.581Z,23.21
2022-08-25T08:00:28.074Z,23.15
2022-08-25T08:01:28.043Z,23.24
2022-08-25T08:02:27.998Z,23.34
2022-08-25T08:03:45.408Z,23.48
2022-08-25T08:04:29.886Z,23.51
2022-08-25T08:05:27.944Z,23.54
2022-08-25T08:06:27.924Z,23.62
2022-08-25T08:07:42.127Z,23.63
2022-08-25T08:08:28.904Z,23.73
2022-08-25T08:09:27.807Z,23.80
2022-08-25T08:11:03.283Z,23.68
2022-08-25T08:11:29.792Z,23.73
2022-08-25T08:12:27.829Z,23.86
2022-08-25T08:13:27.720Z,23.96
2022-08-25T08:14:27.789Z,24.10
2022-08-25T08:15:29.831Z,24.03
2022-08-25T08:16:27.873Z,23.93
2022-08-25T08:17:27.717Z,23.88
2022-08-25T08:18:27.667Z,23.99
2022-08-25T08:19:27.698Z,24.01
2022-08-25T08:20:28.620Z,24.02
2022-08-25T08:21:28.128Z,24.13
2022-08-25T08:22:27.722Z,24.17
2022-08-25T08:23:27.640Z,24.28
2022-08-25T08:24:44.309Z,24.30
2022-08-25T08:25:29.695Z,24.55
2022-08-25T08:26:36.270Z,24.58
2022-08-25T08:27:29.617Z,24.61
2022-08-25T08:28:27.644Z,24.66
2022-08-25T08:29:27.674Z,24.61
2022-08-25T08:30:27.685Z,24.80
2022-08-25T08:31:28.416Z,24.73
2022-08-25T08:32:36.708Z,24.76
2022-08-25T08:33:29.579Z,24.80
2022-08-25T08:34:28.526Z,24.80
2022-08-25T08:35:27.542Z,24.80
2022-08-25T08:36:27.597Z,24.99
2022-08-25T08:37:27.470Z,25.08
2022-08-25T08:38:27.533Z,25.18
2022-08-25T08:39:27.652Z,25.18
2022-08-25T08:40:27.597Z,25.31
2022-08-25T08:41:27.545Z,25.21
2022-08-25T08:42:27.547Z,25.16
2022-08-25T08:43:29.297Z,25.14
2022-08-25T08:44:29.470Z,25.29
2022-08-25T08:45:27.552Z,25.40
2022-08-25T08:46:27.583Z,25.54
2022-08-25T08:47:27.400Z,25.63
2022-08-25T08:48:27.478Z,25.78
2022-08-25T08:49:27.945Z,25.88
2022-08-25T08:50:32.731Z,26.00
2022-08-25T08:51:32.688Z,26.10
2022-08-25T08:52:27.428Z,26.25
2022-08-25T08:53:27.374Z,26.22
2022-08-25T08:54:28.331Z,26.18
2022-08-25T08:55:27.353Z,26.22
2022-08-25T08:56:30.844Z,26.36
2022-08-25T08:57:28.090Z,26.41
2022-08-25T08:58:27.421Z,26.60
2022-08-25T08:59:28.884Z,26.71
2022-08-25T09:00:27.247Z,26.74
2022-08-25T09:01:27.551Z,26.74
2022-08-25T09:02:38.623Z,26.85
2022-08-25T09:03:28.501Z,26.83
2022-08-25T09:04:28.113Z,26.89
2022-08-25T09:05:27.234Z,26.99
2022-08-25T09:06:27.382Z,26.95
2022-08-25T09:07:27.347Z,27.00
2022-08-25T09:08:27.394Z,27.17
2022-08-25T09:09:27.179Z,27.14
2022-08-25T09:10:27.650Z,27.15
2022-08-25T09:11:28.184Z,27.25
2022-08-25T09:12:27.848Z,27.30
2022-08-25T09:13:27.350Z,27.33
2022-08-25T09:14:30.178Z,27.40
2022-08-25T09:15:27.101Z,27.58
2022-08-25T09:16:34.203Z,27.64
2022-08-25T09:17:28.138Z,27.68
2022-08-25T09:18:27.337Z,27.80
2022-08-25T09:19:27.060Z,27.67
2022-08-25T09:20:27.302Z,27.73
2022-08-25T09:21:27.002Z,27.80
2022-08-25T09:22:33.890Z,27.78
2022-08-25T09:23:28.175Z,27.75
2022-08-25T09:24:27.167Z,28.01
2022-08-25T09:25:48.743Z,27.96
2022-08-25T09:26:29.479Z,28.11
2022-08-25T09:27:27.257Z,28.20
2022-08-25T09:28:27.310Z,28.23
2022-08-25T09:29:27.870Z,28.27
2022-08-25T09:30:27.075Z,28.14
2022-08-25T09:31:29.919Z,28.12
2022-08-25T09:32:31.440Z,28.30
2022-08-25T09:33:27.034Z,28.26
2022-08-25T09:34:28.114Z,28.45
2022-08-25T09:35:28.360Z,28.49
2022-08-25T09:36:27.305Z,28.63
2022-08-25T09:37:27.044Z,28.64
2022-08-25T09:38:26.940Z,28.62
2022-08-25T09:45:01.913Z,28.82
2022-08-25T09:46:02.156Z,28.82
2022-08-25T09:47:01.944Z,28.85
2022-08-25T09:48:02.564Z,28.93
2022-08-25T09:49:10.153Z,28.97
2022-08-25T09:50:04.501Z,28.91
2022-08-25T09:51:12.050Z,28.96
2022-08-25T09:52:02.465Z,28.97
2022-08-25T09:53:01.883Z,29.13
2022-08-25T09:54:02.821Z,29.17
2022-08-25T09:55:02.803Z,29.14
2022-08-25T10:01:40.047Z,28.17
2022-08-25T10:02:40.050Z,28.19
2022-08-25T10:03:39.794Z,28.23
2022-08-25T10:12:13.143Z,28.49
2022-08-25T10:13:14.389Z,28.33
2022-08-25T10:14:14.450Z,28.44
2022-08-25T10:15:14.273Z,28.49
2022-08-25T10:16:20.442Z,28.60
2022-08-25T10:17:16.314Z,28.60
2022-08-25T10:18:14.291Z,28.72
2022-08-25T10:19:16.190Z,28.75
2022-08-25T10:20:14.182Z,28.76
2022-08-25T10:21:14.491Z,28.82
2022-08-25T10:22:14.840Z,28.76
2022-08-25T10:23:14.409Z,28.70
2022-08-25T10:24:14.120Z,28.59
2022-08-25T10:25:14.231Z,28.62
2022-08-25T10:26:14.339Z,28.62
2022-08-25T10:27:15.817Z,28.64
2022-08-25T10:28:14.269Z,28.66
2022-08-25T10:29:14.477Z,28.64
2022-08-25T10:31:41.412Z,28.57
2022-08-25T10:31:43.584Z,28.57
2022-08-25T10:32:44.726Z,28.74
2022-08-25T10:33:44.307Z,28.85
2022-08-25T10:34:51.468Z,28.93
2022-08-25T10:35:43.393Z,29.02
2022-08-25T10:36:47.108Z,29.19
2022-08-25T10:37:43.760Z,29.26
2022-08-25T10:38:43.323Z,29.34
2022-08-25T10:39:43.263Z,29.47
2022-08-25T10:40:44.119Z,29.68
2022-08-25T10:41:43.785Z,29.72
2022-08-25T10:42:43.832Z,29.79
2022-08-25T10:43:43.122Z,29.86
2022-08-25T10:44:43.121Z,29.98
2022-08-25T10:45:43.154Z,30.13
2022-08-25T10:46:43.263Z,30.31
2022-08-25T10:47:43.091Z,30.47
2022-08-25T10:48:43.117Z,30.48
2022-08-25T10:49:43.298Z,30.63
2022-08-25T10:50:45.324Z,30.70
2022-08-25T10:51:44.076Z,30.81
2022-08-25T10:52:43.909Z,30.88
2022-08-25T10:53:43.252Z,30.88
2022-08-25T10:54:43.021Z,31.05
2022-08-25T10:55:43.620Z,31.00
2022-08-25T10:56:47.081Z,31.05
2022-08-25T10:57:42.979Z,31.17
2022-08-25T10:58:43.639Z,31.09
2022-08-25T10:59:43.315Z,31.06
2022-08-25T11:00:48.169Z,31.17
2022-08-25T11:01:44.844Z,31.27
2022-08-25T11:02:44.265Z,31.18
2022-08-25T11:03:43.031Z,30.87
2022-08-25T11:04:43.001Z,30.65
2022-08-25T11:05:43.908Z,30.65
2022-08-25T11:06:43.035Z,30.50
2022-08-25T11:07:44.697Z,30.46
2022-08-25T11:08:42.870Z,30.44
2022-08-25T11:09:42.835Z,30.55
2022-08-25T11:10:42.876Z,30.77
2022-08-25T11:11:42.910Z,30.78
2022-08-25T11:12:42.951Z,30.94
2022-08-25T11:13:43.311Z,31.10
2022-08-25T11:14:42.845Z,31.21
2022-08-25T11:17:10.949Z,31.10
2022-08-25T11:17:12.785Z,31.17
2022-08-25T11:18:14.817Z,31.02
2022-08-25T11:19:12.775Z,31.10
2022-08-25T11:20:19.798Z,31.02
2022-08-25T11:21:15.032Z,31.09
2022-08-25T11:22:12.650Z,31.31
2022-08-25T11:23:12.770Z,31.31
2022-08-25T11:24:12.612Z,31.20
2022-08-25T11:25:12.633Z,31.12
2022-08-25T11:26:12.600Z,31.22
2022-08-25T11:27:13.781Z,31.31
2022-08-25T11:28:12.862Z,31.46
2022-08-25T11:29:12.573Z,31.21
2022-08-25T11:30:12.609Z,31.02
2022-08-25T11:31:12.705Z,30.73
2022-08-25T11:32:12.634Z,30.85
2022-08-25T11:33:14.056Z,30.92
2022-08-25T11:34:13.500Z,30.91
2022-08-25T11:35:12.649Z,30.92
2022-08-25T11:36:13.667Z,30.91
2022-08-25T11:37:13.000Z,31.17
2022-08-25T11:38:14.915Z,31.27
2022-08-25T11:39:12.923Z,31.10
2022-08-25T11:40:13.225Z,30.96
2022-08-25T11:41:13.012Z,31.06
2022-08-25T11:42:12.681Z,30.97
2022-08-25T11:43:13.759Z,31.02
2022-08-25T11:44:13.905Z,30.92
2022-08-25T11:45:12.423Z,31.07
2022-08-25T11:46:14.323Z,31.25
2022-08-25T11:47:15.737Z,31.34
2022-08-25T11:48:14.390Z,31.46
2022-08-25T11:49:15.677Z,31.44
2022-08-25T11:50:13.523Z,31.37
2022-08-25T11:51:45.093Z,31.47
2022-08-25T11:52:13.016Z,31.74
2022-08-25T11:53:12.593Z,31.94
2022-08-25T11:54:12.483Z,31.99
2022-08-25T11:55:12.669Z,32.08
2022-08-25T11:56:13.791Z,32.12
2022-08-25T11:59:26.606Z,32.33
2022-08-25T12:00:27.115Z,32.33
2022-08-25T12:01:26.628Z,32.14
2022-08-25T12:02:26.974Z,32.03
2022-08-25T12:03:26.675Z,32.09
2022-08-25T12:04:28.463Z,32.15
2022-08-25T12:06:00.294Z,32.31
2022-08-25T12:06:27.799Z,32.53
2022-08-25T12:07:28.632Z,32.67
2022-08-25T12:09:00.171Z,32.77
2022-08-25T12:09:28.522Z,32.83
2022-08-25T12:10:27.672Z,32.78
2022-08-25T12:12:02.855Z,32.95
2022-08-25T12:12:27.832Z,32.89
2022-08-25T12:13:28.165Z,33.04
2022-08-25T12:14:28.148Z,32.95
2022-08-25T12:15:27.706Z,32.86
2022-08-25T12:16:28.744Z,32.97
2022-08-25T12:21:07.309Z,32.92
2022-08-25T12:22:07.063Z,32.75
2022-08-25T12:23:07.164Z,32.64
2022-08-25T12:24:07.247Z,32.55
2022-08-25T12:25:08.945Z,32.45
2022-08-25T12:26:40.926Z,32.43
2022-08-25T12:27:09.106Z,32.45
2022-08-25T12:28:09.542Z,32.60
2022-08-25T12:29:09.932Z,32.68
2022-08-25T12:30:11.373Z,32.65
2022-08-25T12:32:04.407Z,32.59
2022-08-25T12:33:02.646Z,32.59
2022-08-25T12:34:02.693Z,32.33
2022-08-25T12:35:02.668Z,32.19
2022-08-25T12:36:03.207Z,32.04
2022-08-25T12:37:06.354Z,31.93
2022-08-25T12:38:03.843Z,32.11
2022-08-25T12:39:04.037Z,32.04
2022-08-25T12:40:03.739Z,32.03
2022-08-25T12:41:04.274Z,32.15
2022-08-25T12:42:03.724Z,32.27
2022-08-25T12:43:04.484Z,32.34
2022-08-25T12:44:03.668Z,32.40
2022-08-25T12:45:04.276Z,32.22
2022-08-25T12:46:04.606Z,31.81
2022-08-25T12:49:50.059Z,31.64
2022-08-25T12:50:49.623Z,31.66
2022-08-25T12:51:49.620Z,31.74
2022-08-25T12:52:49.659Z,31.87
2022-08-25T12:53:57.279Z,31.94
2022-08-25T12:54:49.661Z,31.99
2022-08-25T12:55:49.760Z,32.15
2022-08-25T12:56:49.730Z,32.18
2022-08-25T12:57:49.980Z,32.15
2022-08-25T13:02:10.589Z,31.80
2022-08-25T13:03:12.396Z,31.46
2022-08-25T13:04:11.664Z,31.12
2022-08-25T13:05:11.702Z,31.17
2022-08-25T13:06:12.015Z,31.21
2022-08-25T13:07:11.633Z,30.96
2022-08-25T13:08:15.134Z,30.94
2022-08-25T13:09:11.715Z,31.15
2022-08-25T13:10:11.739Z,31.24
2022-08-25T13:11:11.649Z,31.39
2022-08-25T13:12:11.621Z,31.55
2022-08-25T13:13:11.620Z,31.51
2022-08-25T13:14:11.612Z,31.85
2022-08-25T13:15:11.683Z,31.87
2022-08-25T13:16:11.642Z,31.99
2022-08-25T13:17:12.189Z,32.03
2022-08-25T13:18:11.643Z,32.16
2022-08-25T13:19:11.549Z,32.27
2022-08-25T13:20:11.531Z,32.43
2022-08-25T13:21:11.569Z,32.41
2022-08-25T13:22:16.141Z,32.41
2022-08-25T13:23:12.627Z,32.37
2022-08-25T13:24:11.528Z,32.31
2022-08-25T13:25:11.450Z,32.08
2022-08-25T13:26:12.092Z,32.22
2022-08-25T13:27:46.134Z,32.11
2022-08-25T13:28:11.788Z,32.12
2022-08-25T13:29:11.424Z,31.87
2022-08-25T13:30:11.404Z,31.70
2022-08-25T13:31:11.435Z,31.76
2022-08-25T13:32:12.929Z,31.78
2022-08-25T13:33:12.120Z,31.36
2022-08-25T13:34:11.399Z,31.15
2022-08-25T13:35:14.197Z,31.22
2022-08-25T13:36:11.727Z,31.24
2022-08-25T13:37:11.441Z,31.27
2022-08-25T13:38:11.535Z,31.44